WetterOnline ( https://www.wetteronline.de )

Wetter aktuell Harztor

Aktuelles Wetter: Harzgerode (405m)

6-stündlich | Neueste Meldungen
Ortszeit Temperatur Wetter
So, 29.11. 7:00 -0.3° C bedeckt
So, 29.11. 1:00 0.3° C bedeckt
Sa, 28.11. 19:00 -0.7° C bedeckt
Sa, 28.11. 13:00 1.1° C bedeckt
Sa, 28.11. 7:00 2.0° C Nebel
Sa, 28.11. 1:00 1.8° C Nebel
Fr, 27.11. 19:00 3.2° C bedeckt
Fr, 27.11. 13:00 5.6° C bedeckt
Ortszeit Temperatur Wetter
So, 29.11. 9:00 -0.9° C bewölkt
So, 29.11. 8:50 -0.9° C bewölkt
So, 29.11. 8:40 -1.0° C wolkig
So, 29.11. 8:30 -1.4° C fast wolkenlos
So, 29.11. 8:20 -1.4° C wolkenlos
So, 29.11. 8:10 -1.1° C wolkenlos
So, 29.11. 8:00 -1.0° C leicht bewölkt
So, 29.11. 7:30 -0.8° C bedeckt
So, 29.11. 7:00 -0.3° C bedeckt
So, 29.11. 6:30 -0.5° C bewölkt
So, 29.11. 6:00 -0.4° C bedeckt
Ortszeit Relative Feuchte Sichtweite
So, 29.11. 7:00 89% 21 km
So, 29.11. 1:00 81% 55 km
Sa, 28.11. 19:00 90% 17 km
Sa, 28.11. 13:00 92% 12 km
Sa, 28.11. 7:00 100% 0.2 km
Sa, 28.11. 1:00 100% 100 m
Fr, 27.11. 19:00 99% 1.9 km
Fr, 27.11. 13:00 97% 6 km
Ortszeit Relative Feuchte Sichtweite
So, 29.11. 9:00 90% 14 km
So, 29.11. 8:50 90% -
So, 29.11. 8:40 90% -
So, 29.11. 8:30 91% 20 km
So, 29.11. 8:20 91% -
So, 29.11. 8:10 90% -
So, 29.11. 8:00 89% 29 km
So, 29.11. 7:30 90% 14 km
So, 29.11. 7:00 89% 21 km
So, 29.11. 6:30 90% 21 km
So, 29.11. 6:00 88% 20 km
Ortszeit Niederschlagsmenge Niederschlagsart
So, 29.11. 7:00 0.0 l/m2 in 12 Std. -
So, 29.11. 1:00 0.0 l/m2 in 6 Std. -
Sa, 28.11. 19:00 0.1 l/m2 in 12 Std. -
Sa, 28.11. 13:00 0.1 l/m2 in 6 Std. Sprühregen
Sa, 28.11. 7:00 0.1 l/m2 in 12 Std. Sprühregen
Sa, 28.11. 1:00 0.0 l/m2 in 6 Std. -
Fr, 27.11. 19:00 0.0 l/m2 in 12 Std. -
Fr, 27.11. 13:00 0.0 l/m2 in 6 Std. -
Ortszeit Niederschlagsmenge Niederschlagsart
So, 29.11. 9:00 0.0 l/m2 in 1 Std. -
So, 29.11. 8:50 keine Meldung -
So, 29.11. 8:40 keine Meldung -
So, 29.11. 8:30 0.0 l/m2 in 1 Std. -
So, 29.11. 8:20 keine Meldung -
So, 29.11. 8:10 keine Meldung -
So, 29.11. 8:00 0.0 l/m2 in 1 Std. -
So, 29.11. 7:30 0.0 l/m2 in 1 Std. -
So, 29.11. 7:00 0.0 l/m2 in 1 Std. -
So, 29.11. 6:30 0.0 l/m2 in 1 Std. -
So, 29.11. 6:00 0.0 l/m2 in 1 Std. -
Ortszeit Stärke Spitze Richtung
km/h Bft. km/h Grad Sektor
So, 29.11. 7:00 4 1 11 340° N
So, 29.11. 1:00 4 1 22 20° N
Sa, 28.11. 19:00 9 2 24 90° O
Sa, 28.11. 13:00 9 2 20 100° O
Sa, 28.11. 7:00 11 2 18 100° O
Sa, 28.11. 1:00 6 1 17 200° S
Fr, 27.11. 19:00 7 2 15 120° SO
Fr, 27.11. 13:00 4 1 11 130° SO
Ortszeit Stärke Spitze Richtung
km/h Bft. km/h Grad Sektor
So, 29.11. 9:00 7 2 11 350° N
So, 29.11. 8:50 7 2 - 350° N
So, 29.11. 8:40 7 2 - 360° N
So, 29.11. 8:30 6 1 9 10° N
So, 29.11. 8:20 6 1 - 10° N
So, 29.11. 8:10 7 2 - 360° N
So, 29.11. 8:00 6 1 7 360° N
So, 29.11. 7:30 4 1 7 310° NW
So, 29.11. 7:00 4 1 7 340° N
So, 29.11. 6:30 4 1 7 10° N
So, 29.11. 6:00 4 1 11 20° N
Ortszeit Untergrenze Bedeckung Gattung
total tief tief mittel hoch
So, 29.11. 7:00 690 m 8/8 8/8 - - -
So, 29.11. 1:00 750 m 8/8 8/8 - - -
Sa, 28.11. 19:00 210 m 8/8 8/8 - - -
Sa, 28.11. 13:00 210 m 8/8 8/8 - - -
Sa, 28.11. 7:00 <30 m 8/8 0/8 - - -
Sa, 28.11. 1:00 <30 m 8/8 0/8 - - -
Fr, 27.11. 19:00 30 m 8/8 8/8 - - -
Fr, 27.11. 13:00 60 m 8/8 8/8 - - -
Ortszeit Bedeckungsgrad in Achtel und Wolkenuntergrenze
So, 29.11. 9:00 7(750m) 7(870m)
So, 29.11. 8:50 7(750m) 7(870m)
So, 29.11. 8:40 6(780m)
So, 29.11. 8:30 2(720m) 4(870m)
So, 29.11. 8:20 keine Wolken
So, 29.11. 8:10 keine Wolken
So, 29.11. 8:00 2(690m)
So, 29.11. 7:30 8(690m)
So, 29.11. 7:00 8(690m)
So, 29.11. 6:30 7(690m)
So, 29.11. 6:00 8(690m)
Ortszeit Luftdruck NN (hPa) Tendenz (hPa in 3 Std.)
So, 29.11. 7:00 1027 + 0,1
So, 29.11. 1:00 1027 - 0,2
Sa, 28.11. 19:00 1027 + 1,3
Sa, 28.11. 13:00 1025 + 0,2
Sa, 28.11. 7:00 1023 + 0,2
Sa, 28.11. 1:00 1023 0,0
Fr, 27.11. 19:00 1023 + 0,9
Fr, 27.11. 13:00 1021 - 0,3
Ortszeit Luftdruck NN (hPa) Tendenz (hPa in 3 Std.)
So, 29.11. 9:00 1028 + 1,0
So, 29.11. 8:50 1028 keine Meldung
So, 29.11. 8:40 1028 keine Meldung
So, 29.11. 8:30 1028 + 0,7
So, 29.11. 8:20 1028 keine Meldung
So, 29.11. 8:10 1028 keine Meldung
So, 29.11. 8:00 1028 + 0,5
So, 29.11. 7:30 1028 + 0,6
So, 29.11. 7:00 1027 + 0,1
So, 29.11. 6:30 1027 - 0,1
So, 29.11. 6:00 1027 - 0,2
Ortszeit Schneehöhe (cm)
So, 29.11. 7:00 0
So, 29.11. 1:00 0
Sa, 28.11. 19:00 0
Sa, 28.11. 13:00 0
Sa, 28.11. 7:00 0
Sa, 28.11. 1:00 0
Fr, 27.11. 19:00 0
Fr, 27.11. 13:00 0
Ortszeit Schneehöhe (cm)
So, 29.11. 9:00 0
So, 29.11. 8:50 0
So, 29.11. 8:40 0
So, 29.11. 8:30 0
So, 29.11. 8:20 0
So, 29.11. 8:10 0
So, 29.11. 8:00 0
So, 29.11. 7:30 0
So, 29.11. 7:00 0
So, 29.11. 6:30 0
So, 29.11. 6:00 0
Link zu dieser Seite / Seite empfehlen

Das Wetter in ...